createdAt,value
2018-10-05T00:00:59.806Z,8.61
2018-10-05T00:03:28.900Z,8.50
2018-10-05T00:05:57.990Z,8.57
2018-10-05T00:08:27.655Z,8.49
2018-10-05T00:10:56.753Z,8.45
2018-10-05T00:13:25.917Z,8.48
2018-10-05T00:15:54.997Z,8.46
2018-10-05T00:18:24.120Z,8.63
2018-10-05T00:20:53.242Z,8.37
2018-10-05T00:23:22.449Z,8.39
2018-10-05T00:25:51.514Z,8.27
2018-10-05T00:28:20.691Z,8.41
2018-10-05T00:30:49.761Z,8.32
2018-10-05T00:33:18.879Z,8.31
2018-10-05T00:35:47.939Z,8.34
2018-10-05T00:38:17.202Z,8.60
2018-10-05T00:40:46.317Z,8.66
2018-10-05T00:43:15.521Z,8.54
2018-10-05T00:45:44.585Z,8.30
2018-10-05T00:48:13.786Z,8.11
2018-10-05T00:50:42.894Z,8.00
2018-10-05T00:53:12.591Z,8.04
2018-10-05T00:55:41.580Z,8.05
2018-10-05T00:58:10.757Z,7.92
2018-10-05T01:00:39.829Z,8.02
2018-10-05T01:03:08.997Z,8.03
2018-10-05T01:05:38.182Z,7.98
2018-10-05T01:08:07.369Z,7.83
2018-10-05T01:10:36.576Z,7.92
2018-10-05T01:13:05.768Z,7.89
2018-10-05T01:15:34.837Z,7.90
2018-10-05T01:18:03.964Z,7.80
2018-10-05T01:20:33.216Z,7.73
2018-10-05T01:23:02.296Z,7.84
2018-10-05T01:25:31.444Z,7.77
2018-10-05T01:28:00.664Z,7.75
2018-10-05T01:30:29.740Z,7.73
2018-10-05T01:32:58.934Z,7.83
2018-10-05T01:35:28.044Z,7.75
2018-10-05T01:37:57.192Z,7.69
2018-10-05T01:40:26.328Z,7.57
2018-10-05T01:42:55.564Z,7.69
2018-10-05T01:45:24.756Z,7.95
2018-10-05T01:47:53.840Z,8.01
2018-10-05T01:50:22.912Z,7.84
2018-10-05T01:52:52.025Z,7.78
2018-10-05T01:55:21.220Z,7.81
2018-10-05T01:57:50.326Z,7.73
2018-10-05T02:00:19.504Z,7.67
2018-10-05T02:02:48.612Z,7.47
2018-10-05T02:05:17.796Z,7.50
2018-10-05T02:07:46.883Z,7.42
2018-10-05T02:10:16.012Z,7.53
2018-10-05T02:12:45.099Z,7.49
2018-10-05T02:15:14.271Z,7.38
2018-10-05T02:17:43.404Z,7.42
2018-10-05T02:20:12.552Z,7.42
2018-10-05T02:22:41.723Z,7.37
2018-10-05T02:25:10.878Z,7.30
2018-10-05T02:27:40.227Z,7.45
2018-10-05T02:30:09.278Z,7.44
2018-10-05T02:32:38.576Z,7.60
2018-10-05T02:35:07.764Z,7.72
2018-10-05T02:37:36.841Z,7.42
2018-10-05T02:40:06.001Z,7.45
2018-10-05T02:42:35.081Z,7.47
2018-10-05T02:45:04.272Z,7.39
2018-10-05T02:47:33.373Z,7.30
2018-10-05T02:50:02.629Z,7.21
2018-10-05T02:52:31.756Z,7.20
2018-10-05T02:55:00.906Z,7.21
2018-10-05T02:57:30.037Z,7.33
2018-10-05T02:59:59.228Z,7.19
2018-10-05T03:02:30.746Z,7.23
2018-10-05T03:04:59.808Z,7.14
2018-10-05T03:07:30.113Z,7.16
2018-10-05T03:10:00.731Z,7.16
2018-10-05T03:12:30.205Z,7.22
2018-10-05T03:14:59.356Z,7.11
2018-10-05T03:17:28.540Z,7.25
2018-10-05T03:19:57.771Z,7.21
2018-10-05T03:22:26.840Z,7.15
2018-10-05T03:24:56.008Z,7.13
2018-10-05T03:27:25.091Z,7.14
2018-10-05T03:29:54.312Z,7.10
2018-10-05T03:32:23.656Z,7.20
2018-10-05T03:34:52.801Z,7.18
2018-10-05T03:37:22.008Z,7.09
2018-10-05T03:39:51.162Z,7.07
2018-10-05T03:42:20.332Z,7.07
2018-10-05T03:44:49.432Z,7.12
2018-10-05T03:47:18.583Z,7.00
2018-10-05T03:49:47.791Z,7.05
2018-10-05T03:52:16.884Z,7.17
2018-10-05T03:54:45.987Z,7.00
2018-10-05T03:57:15.058Z,7.06
2018-10-05T03:59:44.137Z,7.06
2018-10-05T04:02:13.369Z,7.19
2018-10-05T04:04:42.549Z,7.24
2018-10-05T04:07:11.777Z,7.22
2018-10-05T04:09:40.965Z,7.03
2018-10-05T04:12:10.095Z,7.05
2018-10-05T04:14:39.256Z,6.94
2018-10-05T04:17:08.329Z,6.94
2018-10-05T04:19:37.501Z,6.92
2018-10-05T04:22:06.733Z,6.94
2018-10-05T04:24:35.951Z,7.04
2018-10-05T04:27:05.146Z,7.29
2018-10-05T04:29:34.187Z,7.13
2018-10-05T04:32:03.418Z,7.02
2018-10-05T04:34:32.645Z,6.93
2018-10-05T04:37:01.761Z,6.81
2018-10-05T04:39:30.868Z,6.72
2018-10-05T04:41:59.936Z,6.66
2018-10-05T04:44:29.077Z,6.81
2018-10-05T04:46:58.202Z,6.82
2018-10-05T04:49:27.513Z,6.70
2018-10-05T04:51:56.572Z,6.70
2018-10-05T04:54:25.712Z,6.76
2018-10-05T04:56:54.917Z,6.74
2018-10-05T04:59:24.156Z,6.79
2018-10-05T05:01:53.390Z,6.79
2018-10-05T05:04:22.658Z,6.76
2018-10-05T05:06:51.777Z,6.89
2018-10-05T05:09:20.889Z,6.85
2018-10-05T05:11:50.075Z,6.88
2018-10-05T05:14:19.285Z,6.82
2018-10-05T05:16:48.379Z,6.79
2018-10-05T05:19:17.558Z,6.76
2018-10-05T05:21:46.608Z,6.81
2018-10-05T05:24:15.788Z,6.79
2018-10-05T05:26:44.876Z,6.66
2018-10-05T05:29:14.041Z,6.74
2018-10-05T05:31:43.184Z,6.78
2018-10-05T05:34:12.332Z,6.80
2018-10-05T05:36:41.511Z,6.85
2018-10-05T05:39:10.604Z,6.87
2018-10-05T05:41:39.689Z,6.82
2018-10-05T05:44:08.816Z,6.87
2018-10-05T05:46:38.064Z,6.80
2018-10-05T05:49:07.247Z,6.90
2018-10-05T05:51:36.304Z,6.97
2018-10-05T05:54:05.517Z,7.02
2018-10-05T05:56:34.649Z,7.11
2018-10-05T05:59:03.757Z,7.30
2018-10-05T06:01:32.831Z,7.23
2018-10-05T06:04:02.013Z,7.22
2018-10-05T06:06:31.090Z,7.23
2018-10-05T06:09:00.301Z,7.27
2018-10-05T06:11:29.405Z,7.30
2018-10-05T06:13:58.573Z,7.50
2018-10-05T06:16:27.689Z,7.58
2018-10-05T06:18:56.895Z,7.67
2018-10-05T06:21:25.978Z,7.69
2018-10-05T06:23:55.075Z,7.74
2018-10-05T06:26:24.266Z,7.78
2018-10-05T06:28:53.554Z,7.80
2018-10-05T06:31:22.600Z,7.76
2018-10-05T06:33:51.732Z,8.01
2018-10-05T06:36:20.817Z,7.93
2018-10-05T06:38:49.917Z,7.98
2018-10-05T06:41:18.992Z,8.04
2018-10-05T06:43:48.182Z,8.10
2018-10-05T06:46:17.235Z,8.16
2018-10-05T06:48:46.344Z,8.08
2018-10-05T06:51:15.618Z,8.21
2018-10-05T06:53:44.702Z,8.17
2018-10-05T06:56:13.822Z,8.24
2018-10-05T06:58:43.111Z,8.30
2018-10-05T07:01:12.203Z,8.37
2018-10-05T07:03:41.316Z,8.42
2018-10-05T07:06:10.424Z,8.48
2018-10-05T07:08:39.654Z,8.55
2018-10-05T07:11:08.819Z,8.60
2018-10-05T07:13:37.943Z,8.75
2018-10-05T07:16:07.013Z,8.75
2018-10-05T07:18:36.210Z,8.72
2018-10-05T07:21:05.397Z,8.79
2018-10-05T07:23:34.504Z,8.78
2018-10-05T07:26:03.793Z,8.91
2018-10-05T07:28:33.036Z,8.93
2018-10-05T07:31:02.064Z,9.05
2018-10-05T07:33:31.182Z,9.07
2018-10-05T07:36:00.897Z,9.20
2018-10-05T07:38:29.976Z,9.24
2018-10-05T07:40:59.108Z,9.32
2018-10-05T07:43:28.356Z,9.47
2018-10-05T07:45:57.412Z,9.52
2018-10-05T07:48:26.600Z,9.63
2018-10-05T07:50:55.653Z,9.74
2018-10-05T07:53:24.744Z,9.83
2018-10-05T07:55:53.952Z,9.95
2018-10-05T07:58:23.133Z,10.05
2018-10-05T08:00:52.250Z,10.15
2018-10-05T08:03:21.370Z,10.31
2018-10-05T08:05:50.692Z,10.48
2018-10-05T08:08:19.921Z,10.60
2018-10-05T08:10:49.163Z,10.73
2018-10-05T08:13:18.589Z,10.88
2018-10-05T08:15:47.672Z,11.05
2018-10-05T08:18:16.815Z,11.07
2018-10-05T08:20:45.896Z,11.08
2018-10-05T08:23:15.035Z,11.28
2018-10-05T08:25:44.239Z,11.42
2018-10-05T08:28:13.341Z,11.52
2018-10-05T08:30:42.514Z,11.53
2018-10-05T08:33:11.775Z,11.87
2018-10-05T08:35:40.995Z,12.08
2018-10-05T08:38:10.283Z,12.09
2018-10-05T08:40:39.463Z,12.25
2018-10-05T08:43:08.535Z,12.32
2018-10-05T08:45:37.660Z,12.24
2018-10-05T08:48:07.299Z,12.51
2018-10-05T08:50:36.415Z,12.76
2018-10-05T08:53:05.697Z,12.88
2018-10-05T08:55:34.909Z,13.02
2018-10-05T08:58:04.005Z,12.91
2018-10-05T09:00:33.275Z,13.00
2018-10-05T09:03:02.296Z,13.40
2018-10-05T09:05:31.395Z,13.28
2018-10-05T09:08:00.484Z,13.40
2018-10-05T09:10:29.572Z,13.35
2018-10-05T09:12:58.660Z,13.51
2018-10-05T09:15:27.784Z,13.70
2018-10-05T09:17:56.908Z,13.81
2018-10-05T09:20:26.024Z,13.74
2018-10-05T09:22:55.154Z,13.85
2018-10-05T09:25:24.288Z,13.87
2018-10-05T09:27:53.368Z,13.98
2018-10-05T09:30:22.516Z,13.80
2018-10-05T09:32:51.579Z,13.99
2018-10-05T09:35:20.748Z,14.13
2018-10-05T09:37:49.814Z,14.27
2018-10-05T09:40:19.104Z,14.05
2018-10-05T09:42:54.648Z,14.02
2018-10-05T09:45:23.948Z,14.29
2018-10-05T09:47:52.909Z,14.43
2018-10-05T09:50:22.017Z,14.57
2018-10-05T09:52:51.223Z,14.75
2018-10-05T09:55:20.349Z,14.71
2018-10-05T09:57:49.479Z,15.06
2018-10-05T10:00:23.881Z,15.03
2018-10-05T10:02:58.212Z,15.06
2018-10-05T10:05:27.296Z,15.10
2018-10-05T10:07:56.427Z,15.15
2018-10-05T10:10:25.632Z,15.18
2018-10-05T10:12:54.734Z,15.33
2018-10-05T10:15:23.926Z,15.84
2018-10-05T10:17:53.012Z,15.70
2018-10-05T10:20:22.222Z,15.74
2018-10-05T10:22:51.332Z,15.93
2018-10-05T10:25:20.522Z,16.26
2018-10-05T10:27:49.598Z,16.53
2018-10-05T10:30:18.824Z,16.48
2018-10-05T10:32:47.896Z,16.53
2018-10-05T10:35:17.054Z,16.66
2018-10-05T10:37:46.110Z,16.60
2018-10-05T10:40:15.296Z,16.59
2018-10-05T10:42:44.589Z,16.75
2018-10-05T10:45:13.650Z,16.81
2018-10-05T10:47:42.704Z,16.71
2018-10-05T10:50:11.910Z,17.21
2018-10-05T10:52:40.972Z,17.56
2018-10-05T10:55:10.417Z,17.66
2018-10-05T10:57:39.692Z,17.52
2018-10-05T11:00:08.878Z,17.76
2018-10-05T11:02:37.954Z,18.06
2018-10-05T11:05:07.081Z,17.99
2018-10-05T11:07:36.109Z,18.10
2018-10-05T11:10:05.289Z,18.28
2018-10-05T11:12:34.432Z,18.39
2018-10-05T11:15:03.661Z,18.92
2018-10-05T11:17:32.729Z,18.87
2018-10-05T11:20:01.895Z,19.23
2018-10-05T11:22:31.056Z,19.79
2018-10-05T11:25:00.242Z,20.18
2018-10-05T11:27:29.305Z,20.77
2018-10-05T11:29:58.544Z,21.87
2018-10-05T11:32:28.651Z,22.16
2018-10-05T11:34:57.795Z,22.27
2018-10-05T11:37:26.849Z,22.29
2018-10-05T11:39:55.928Z,21.31
2018-10-05T11:42:24.968Z,23.12
2018-10-05T11:44:54.203Z,24.86
2018-10-05T11:47:23.233Z,25.20
2018-10-05T11:49:52.333Z,27.48
2018-10-05T11:52:21.460Z,27.10
2018-10-05T11:54:50.452Z,27.93
2018-10-05T11:57:19.685Z,24.48
2018-10-05T11:59:48.936Z,27.32
2018-10-05T12:02:17.832Z,28.26
2018-10-05T12:04:46.985Z,27.84
2018-10-05T12:07:16.075Z,28.45
2018-10-05T12:09:45.126Z,29.61
2018-10-05T12:12:14.264Z,29.50
2018-10-05T12:14:43.709Z,29.85
2018-10-05T12:17:12.762Z,29.18
2018-10-05T12:19:41.863Z,28.95
2018-10-05T12:22:10.976Z,28.81
2018-10-05T12:24:40.043Z,29.26
2018-10-05T12:27:09.170Z,29.34
2018-10-05T12:29:38.238Z,30.15
2018-10-05T12:32:07.370Z,30.74
2018-10-05T12:34:36.405Z,30.60
2018-10-05T12:37:05.502Z,31.10
2018-10-05T12:39:34.497Z,31.51
2018-10-05T12:42:03.815Z,31.43
2018-10-05T12:44:32.901Z,31.11
2018-10-05T12:47:01.977Z,30.97
2018-10-05T12:49:31.101Z,30.96
2018-10-05T12:52:00.229Z,29.94
2018-10-05T12:54:29.385Z,30.71
2018-10-05T12:56:58.439Z,31.60
2018-10-05T12:59:27.476Z,31.27
2018-10-05T13:01:56.601Z,31.40
2018-10-05T13:04:25.659Z,31.70
2018-10-05T13:06:54.713Z,32.15
2018-10-05T13:09:23.787Z,32.06
2018-10-05T13:11:52.878Z,32.69
2018-10-05T13:14:21.922Z,32.22
2018-10-05T13:16:51.070Z,32.24
2018-10-05T13:19:20.148Z,32.08
2018-10-05T13:21:49.204Z,32.25
2018-10-05T13:24:18.313Z,32.04
2018-10-05T13:26:47.385Z,31.56
2018-10-05T13:29:16.406Z,31.77
2018-10-05T13:31:45.532Z,32.76
2018-10-05T13:34:15.022Z,32.48
2018-10-05T13:36:44.176Z,31.45
2018-10-05T13:39:13.253Z,32.20
2018-10-05T13:41:42.438Z,31.46
2018-10-05T13:44:11.453Z,31.89
2018-10-05T13:46:40.630Z,32.28
2018-10-05T13:49:09.930Z,31.98
2018-10-05T13:51:39.064Z,31.57
2018-10-05T13:54:08.131Z,32.59
2018-10-05T13:56:37.255Z,32.74
2018-10-05T13:59:07.080Z,32.12
2018-10-05T14:01:36.713Z,32.86
2018-10-05T14:04:06.162Z,33.32
2018-10-05T14:06:35.272Z,32.70
2018-10-05T14:09:07.460Z,31.84
2018-10-05T14:11:36.564Z,32.23
2018-10-05T14:14:06.064Z,32.28
2018-10-05T14:16:35.249Z,32.29
2018-10-05T14:19:04.675Z,32.79
2018-10-05T14:21:34.021Z,32.75
2018-10-05T14:24:03.508Z,32.38
2018-10-05T14:26:32.644Z,32.11
2018-10-05T14:29:01.804Z,31.89
2018-10-05T14:31:30.932Z,31.70
2018-10-05T14:34:00.127Z,32.11
2018-10-05T14:36:29.224Z,31.84
2018-10-05T14:38:58.487Z,31.83
2018-10-05T14:41:27.596Z,31.30
2018-10-05T14:43:56.814Z,29.46
2018-10-05T14:46:26.008Z,29.39
2018-10-05T14:48:55.191Z,29.26
2018-10-05T14:51:24.288Z,29.17
2018-10-05T14:53:53.408Z,30.33
2018-10-05T14:56:22.615Z,30.45
2018-10-05T14:58:51.788Z,30.55
2018-10-05T15:01:20.883Z,30.80
2018-10-05T15:03:49.977Z,30.31
2018-10-05T15:06:19.063Z,29.86
2018-10-05T15:08:48.241Z,29.16
2018-10-05T15:11:17.389Z,28.58
2018-10-05T15:13:46.539Z,28.57
2018-10-05T15:16:15.669Z,29.07
2018-10-05T15:18:44.741Z,28.81
2018-10-05T15:21:13.882Z,28.20
2018-10-05T15:23:42.898Z,27.91
2018-10-05T15:26:12.085Z,26.95
2018-10-05T15:28:41.220Z,25.72
2018-10-05T15:31:10.345Z,24.78
2018-10-05T15:33:39.400Z,23.81
2018-10-05T15:36:08.648Z,23.46
2018-10-05T15:38:37.780Z,23.39
2018-10-05T15:41:07.129Z,22.60
2018-10-05T15:43:36.208Z,22.08
2018-10-05T15:46:07.949Z,21.88
2018-10-05T15:48:37.485Z,21.40
2018-10-05T15:51:06.945Z,21.40
2018-10-05T15:53:36.487Z,21.30
2018-10-05T15:56:05.585Z,21.13
2018-10-05T15:58:34.704Z,21.01
2018-10-05T16:01:03.828Z,20.89
2018-10-05T16:03:32.953Z,20.73
2018-10-05T16:06:02.469Z,20.52
2018-10-05T16:08:31.564Z,20.48
2018-10-05T16:11:00.775Z,20.33
2018-10-05T16:13:29.872Z,20.11
2018-10-05T16:15:58.980Z,19.94
2018-10-05T16:18:28.155Z,19.82
2018-10-05T16:20:57.369Z,19.56
2018-10-05T16:23:26.952Z,19.52
2018-10-05T16:25:56.121Z,19.34
2018-10-05T16:28:25.237Z,19.17
2018-10-05T16:30:54.540Z,18.92
2018-10-05T16:33:23.652Z,18.89
2018-10-05T16:35:52.808Z,18.83
2018-10-05T16:38:21.921Z,18.69
2018-10-05T16:40:51.160Z,18.72
2018-10-05T16:43:20.221Z,18.66
2018-10-05T16:45:49.514Z,18.54
2018-10-05T16:48:18.688Z,18.24
2018-10-05T16:50:47.808Z,18.14
2018-10-05T16:53:16.903Z,17.95
2018-10-05T16:55:46.100Z,17.81
2018-10-05T16:58:15.202Z,17.71
2018-10-05T17:00:44.319Z,17.55
2018-10-05T17:03:13.387Z,17.17
2018-10-05T17:05:42.511Z,17.22
2018-10-05T17:08:11.688Z,17.18
2018-10-05T17:10:40.992Z,16.98
2018-10-05T17:13:10.093Z,16.79
2018-10-05T17:15:39.234Z,16.77
2018-10-05T17:18:08.469Z,16.69
2018-10-05T17:20:37.667Z,16.65
2018-10-05T17:23:06.818Z,16.60
2018-10-05T17:25:35.992Z,16.46
2018-10-05T17:28:05.173Z,16.30
2018-10-05T17:30:34.273Z,16.10
2018-10-05T17:33:03.369Z,16.25
2018-10-05T17:35:32.476Z,16.26
2018-10-05T17:38:01.783Z,16.14
2018-10-05T17:40:30.873Z,16.09
2018-10-05T17:42:59.940Z,15.93
2018-10-05T17:45:29.259Z,15.88
2018-10-05T17:47:58.456Z,15.89
2018-10-05T17:50:27.556Z,15.86
2018-10-05T17:52:56.721Z,15.71
2018-10-05T17:55:26.027Z,15.69
2018-10-05T17:57:55.112Z,15.63
2018-10-05T18:00:24.210Z,15.61
2018-10-05T18:02:53.311Z,15.36
2018-10-05T18:05:22.460Z,15.31
2018-10-05T18:07:51.971Z,15.19
2018-10-05T18:10:21.052Z,15.25
2018-10-05T18:12:50.218Z,15.08
2018-10-05T18:15:19.436Z,15.19
2018-10-05T18:17:48.712Z,15.15
2018-10-05T18:20:18.004Z,15.01
2018-10-05T18:22:47.406Z,14.96
2018-10-05T18:25:16.558Z,14.84
2018-10-05T18:27:45.731Z,14.90
2018-10-05T18:30:14.915Z,14.84
2018-10-05T18:32:44.203Z,14.71
2018-10-05T18:35:13.277Z,14.62
2018-10-05T18:37:42.383Z,14.54
2018-10-05T18:40:11.770Z,14.52
2018-10-05T18:42:40.876Z,14.55
2018-10-05T18:45:10.256Z,14.40
2018-10-05T18:47:39.561Z,14.40
2018-10-05T18:50:08.692Z,14.42
2018-10-05T18:52:37.821Z,14.32
2018-10-05T18:55:07.021Z,14.25
2018-10-05T18:57:36.145Z,14.26
2018-10-05T19:00:05.333Z,14.24
2018-10-05T19:02:34.408Z,14.17
2018-10-05T19:05:03.580Z,14.09
2018-10-05T19:07:32.792Z,14.11
2018-10-05T19:10:01.881Z,14.06
2018-10-05T19:12:31.008Z,14.09
2018-10-05T19:15:00.108Z,14.00
2018-10-05T19:17:29.236Z,13.97
2018-10-05T19:19:58.324Z,13.97
2018-10-05T19:22:28.369Z,13.92
2018-10-05T19:24:57.481Z,13.84
2018-10-05T19:27:26.607Z,13.80
2018-10-05T19:29:55.709Z,13.84
2018-10-05T19:32:24.859Z,13.69
2018-10-05T19:34:54.048Z,13.65
2018-10-05T19:37:23.174Z,13.50
2018-10-05T19:39:52.258Z,13.60
2018-10-05T19:42:21.454Z,13.53
2018-10-05T19:44:50.631Z,13.30
2018-10-05T19:47:19.845Z,13.42
2018-10-05T19:49:49.014Z,13.51
2018-10-05T19:52:18.127Z,13.42
2018-10-05T19:54:47.322Z,13.48
2018-10-05T19:57:16.641Z,13.24
2018-10-05T19:59:45.848Z,13.22
2018-10-05T20:02:15.038Z,13.31
2018-10-05T20:04:44.207Z,13.25
2018-10-05T20:07:13.348Z,13.27
2018-10-05T20:09:42.450Z,13.13
2018-10-05T20:12:11.575Z,13.03
2018-10-05T20:14:40.690Z,13.03
2018-10-05T20:17:09.823Z,13.08
2018-10-05T20:19:38.896Z,12.87
2018-10-05T20:22:08.840Z,13.04
2018-10-05T20:24:38.029Z,12.97
2018-10-05T20:27:07.179Z,12.93
2018-10-05T20:29:36.311Z,12.97
2018-10-05T20:32:05.408Z,12.94
2018-10-05T20:34:34.603Z,12.86
2018-10-05T20:37:03.963Z,12.75
2018-10-05T20:39:32.798Z,12.71
2018-10-05T20:42:01.983Z,12.69
2018-10-05T20:44:31.232Z,12.63
2018-10-05T20:47:00.455Z,12.66
2018-10-05T20:49:29.550Z,12.51
2018-10-05T20:51:58.645Z,12.46
2018-10-05T20:54:27.763Z,12.56
2018-10-05T20:56:57.002Z,12.48
2018-10-05T20:59:26.141Z,12.36
2018-10-05T21:01:55.233Z,12.37
2018-10-05T21:04:24.454Z,12.57
2018-10-05T21:06:53.448Z,12.38
2018-10-05T21:09:22.618Z,12.22
2018-10-05T21:11:51.728Z,12.24
2018-10-05T21:14:20.936Z,12.27
2018-10-05T21:16:50.041Z,12.29
2018-10-05T21:19:19.155Z,12.26
2018-10-05T21:21:48.264Z,12.31
2018-10-05T21:24:17.428Z,12.36
2018-10-05T21:26:46.612Z,12.24
2018-10-05T21:29:15.703Z,12.21
2018-10-05T21:31:44.924Z,12.26
2018-10-05T21:34:14.037Z,12.16
2018-10-05T21:36:43.501Z,12.18
2018-10-05T21:39:12.820Z,12.07
2018-10-05T21:41:42.010Z,12.02
2018-10-05T21:44:11.130Z,12.10
2018-10-05T21:46:40.444Z,12.11
2018-10-05T21:49:09.572Z,12.08
2018-10-05T21:51:38.656Z,12.04
2018-10-05T21:54:07.953Z,12.01
2018-10-05T21:56:37.061Z,11.97
2018-10-05T21:59:06.177Z,11.99
2018-10-05T22:01:35.300Z,11.90
2018-10-05T22:04:04.420Z,11.94
2018-10-05T22:06:33.775Z,11.95
2018-10-05T22:09:02.945Z,11.90
2018-10-05T22:11:32.073Z,12.03
2018-10-05T22:14:01.209Z,11.89
2018-10-05T22:16:30.345Z,11.73
2018-10-05T22:18:59.486Z,11.67
2018-10-05T22:21:28.589Z,11.74
2018-10-05T22:23:57.701Z,11.87
2018-10-05T22:26:26.821Z,11.71
2018-10-05T22:28:55.951Z,11.67
2018-10-05T22:31:25.078Z,11.61
2018-10-05T22:33:54.384Z,11.57
2018-10-05T22:36:23.581Z,11.74
2018-10-05T22:38:52.698Z,11.61
2018-10-05T22:41:21.822Z,11.63
2018-10-05T22:43:50.938Z,11.55
2018-10-05T22:46:20.452Z,11.42
2018-10-05T22:48:49.725Z,11.43
2018-10-05T22:51:18.820Z,11.38
2018-10-05T22:53:48.037Z,11.63
2018-10-05T22:56:17.176Z,11.52
2018-10-05T22:58:46.290Z,11.40
2018-10-05T23:01:15.399Z,11.45
2018-10-05T23:03:44.481Z,11.39
2018-10-05T23:06:13.641Z,11.29
2018-10-05T23:08:42.756Z,11.27
2018-10-05T23:11:11.859Z,11.33
2018-10-05T23:13:40.989Z,11.35
2018-10-05T23:16:10.117Z,11.43
2018-10-05T23:18:39.221Z,11.45
2018-10-05T23:21:08.339Z,11.46
2018-10-05T23:23:37.443Z,11.49
2018-10-05T23:26:06.677Z,11.42
2018-10-05T23:28:36.030Z,11.42
2018-10-05T23:31:05.139Z,11.39
2018-10-05T23:33:34.260Z,11.36
2018-10-05T23:36:03.357Z,11.42
2018-10-05T23:38:32.488Z,11.44
2018-10-05T23:41:01.652Z,11.47
2018-10-05T23:43:30.753Z,11.29
2018-10-05T23:46:00.051Z,11.13
2018-10-05T23:48:29.172Z,11.14
2018-10-05T23:50:58.252Z,11.18
2018-10-05T23:53:27.364Z,11.15
2018-10-05T23:55:56.467Z,11.25
2018-10-05T23:58:25.599Z,11.27
